createdAt,value
2022-10-22T00:00:36.948Z,34.40
2022-10-22T00:04:32.851Z,33.78
2022-10-22T00:08:07.216Z,38.08
2022-10-22T00:11:38.924Z,33.70
2022-10-22T00:15:11.383Z,34.23
2022-10-22T00:18:43.240Z,34.33
2022-10-22T00:22:15.186Z,33.47
2022-10-22T00:25:47.304Z,39.93
2022-10-22T00:29:20.088Z,36.83
2022-10-22T00:32:51.806Z,33.58
2022-10-22T00:36:23.648Z,34.35
2022-10-22T00:39:55.402Z,35.87
2022-10-22T00:43:27.427Z,34.00
2022-10-22T00:46:59.307Z,36.38
2022-10-22T00:50:39.098Z,36.55
2022-10-22T00:54:10.921Z,38.13
2022-10-22T00:57:43.246Z,32.20
2022-10-22T01:01:21.659Z,36.53
2022-10-22T01:04:53.988Z,39.88
2022-10-22T01:08:28.528Z,36.87
2022-10-22T01:12:20.629Z,38.80
2022-10-22T01:16:04.502Z,34.00
2022-10-22T01:20:01.369Z,36.92
2022-10-22T01:24:03.826Z,35.73
2022-10-22T01:28:11.349Z,38.27
2022-10-22T01:31:48.415Z,31.33
2022-10-22T01:35:27.492Z,36.90
2022-10-22T01:39:00.902Z,37.30
2022-10-22T01:42:33.055Z,35.95
2022-10-22T01:46:06.552Z,33.65
2022-10-22T01:50:04.737Z,33.95
2022-10-22T01:53:48.587Z,29.43
2022-10-22T01:57:44.406Z,35.80
2022-10-22T02:01:46.309Z,38.47
2022-10-22T02:05:27.382Z,37.13
2022-10-22T02:09:01.251Z,32.80
2022-10-22T02:12:34.938Z,35.47
2022-10-22T02:16:08.889Z,35.45
2022-10-22T02:19:56.946Z,38.77
2022-10-22T02:23:29.085Z,34.70
2022-10-22T02:27:25.948Z,35.40
2022-10-22T02:31:11.530Z,40.85
2022-10-22T02:34:44.927Z,41.77
2022-10-22T02:38:17.730Z,36.87
2022-10-22T02:41:49.662Z,46.75
2022-10-22T02:45:21.711Z,47.95
2022-10-22T02:48:53.664Z,47.53
2022-10-22T02:52:25.396Z,48.00
2022-10-22T02:55:57.480Z,46.05
2022-10-22T02:59:29.141Z,48.85
2022-10-22T03:03:00.959Z,53.87
2022-10-22T03:06:32.657Z,58.33
2022-10-22T03:10:05.351Z,54.65
2022-10-22T03:13:37.925Z,44.67
2022-10-22T03:17:10.092Z,51.07
2022-10-22T03:20:42.040Z,54.37
2022-10-22T03:24:18.824Z,48.15
2022-10-22T03:27:54.408Z,55.08
2022-10-22T03:31:26.435Z,50.90
2022-10-22T03:34:58.160Z,54.57
2022-10-22T03:38:30.684Z,46.83
2022-10-22T03:42:03.029Z,57.65
2022-10-22T03:45:34.943Z,59.63
2022-10-22T03:49:06.751Z,50.47
2022-10-22T03:52:40.009Z,54.30
2022-10-22T03:56:12.796Z,53.83
2022-10-22T03:59:46.280Z,58.20
2022-10-22T04:03:18.081Z,50.27
2022-10-22T04:06:49.950Z,49.67
2022-10-22T04:10:21.593Z,55.13
2022-10-22T04:13:53.428Z,57.43
2022-10-22T04:17:25.143Z,57.60
2022-10-22T04:20:57.003Z,57.80
2022-10-22T04:24:31.578Z,53.22
2022-10-22T04:28:03.433Z,55.83
2022-10-22T04:31:35.765Z,67.80
2022-10-22T04:35:08.012Z,63.53
2022-10-22T04:38:40.626Z,57.65
2022-10-22T04:42:12.700Z,53.33
2022-10-22T04:45:45.008Z,70.10
2022-10-22T04:49:17.015Z,66.15
2022-10-22T04:52:48.820Z,59.25
2022-10-22T04:56:24.977Z,70.37
2022-10-22T04:59:56.889Z,84.80
2022-10-22T05:03:28.743Z,82.72
2022-10-22T05:07:00.518Z,84.43
2022-10-22T05:10:32.345Z,73.63
2022-10-22T05:14:06.190Z,90.47
2022-10-22T05:17:38.702Z,85.93
2022-10-22T05:21:16.947Z,79.25
2022-10-22T05:24:49.174Z,106.67
2022-10-22T05:28:20.850Z,71.13
2022-10-22T05:31:53.364Z,69.35
2022-10-22T05:35:25.376Z,85.70
2022-10-22T05:38:57.879Z,80.17
2022-10-22T05:42:33.416Z,84.07
2022-10-22T05:46:07.821Z,78.57
2022-10-22T05:49:39.948Z,72.63
2022-10-22T05:53:12.335Z,97.47
2022-10-22T05:56:44.000Z,83.72
2022-10-22T06:00:16.883Z,93.57
2022-10-22T06:03:49.176Z,97.27
2022-10-22T06:07:21.174Z,95.87
2022-10-22T06:10:52.960Z,96.43
2022-10-22T06:14:26.054Z,104.95
2022-10-22T06:17:57.774Z,94.37
2022-10-22T06:21:31.129Z,77.23
2022-10-22T06:25:02.970Z,65.43
2022-10-22T06:28:37.672Z,72.95
2022-10-22T06:32:09.537Z,76.47
2022-10-22T06:35:41.497Z,74.37
2022-10-22T06:39:16.072Z,83.05
2022-10-22T06:42:47.940Z,72.05
2022-10-22T06:46:21.745Z,69.70
2022-10-22T06:49:53.998Z,82.63
2022-10-22T06:53:25.910Z,75.90
2022-10-22T06:56:58.064Z,77.43
2022-10-22T07:00:29.863Z,70.43
2022-10-22T07:04:02.211Z,75.17
2022-10-22T07:07:33.876Z,78.20
2022-10-22T07:11:12.258Z,75.65
2022-10-22T07:14:44.011Z,74.93
2022-10-22T07:18:15.823Z,66.43
2022-10-22T07:21:47.576Z,77.25
2022-10-22T07:25:19.522Z,71.45
2022-10-22T07:28:51.689Z,68.57
2022-10-22T07:32:24.015Z,75.77
2022-10-22T07:36:02.807Z,69.47
2022-10-22T07:39:34.781Z,62.83
2022-10-22T07:43:06.826Z,67.90
2022-10-22T07:46:38.731Z,68.47
2022-10-22T07:50:10.594Z,71.38
2022-10-22T07:53:45.998Z,72.55
2022-10-22T07:57:18.112Z,60.90
2022-10-22T08:00:51.587Z,67.47
2022-10-22T08:04:23.454Z,73.80
2022-10-22T08:07:55.407Z,69.10
2022-10-22T08:11:27.126Z,68.80
2022-10-22T08:15:00.843Z,63.13
2022-10-22T08:18:32.603Z,66.95
2022-10-22T08:22:04.611Z,57.50
2022-10-22T08:25:36.733Z,58.30
2022-10-22T08:29:08.891Z,60.43
2022-10-22T08:32:41.163Z,54.97
2022-10-22T08:36:13.186Z,64.18
2022-10-22T08:39:45.664Z,56.73
2022-10-22T08:43:42.832Z,52.50
2022-10-22T08:47:40.608Z,49.65
2022-10-22T08:51:20.348Z,47.83
2022-10-22T08:54:59.365Z,45.17
2022-10-22T08:58:44.257Z,42.23
2022-10-22T09:03:00.239Z,47.33
2022-10-22T09:06:35.415Z,43.95
2022-10-22T09:10:11.450Z,41.90
2022-10-22T09:13:45.848Z,44.07
2022-10-22T09:17:26.180Z,45.05
2022-10-22T09:21:16.728Z,41.58
2022-10-22T09:24:56.034Z,41.08
2022-10-22T09:28:30.424Z,36.87
2022-10-22T09:32:02.822Z,32.50
2022-10-22T09:35:46.194Z,33.33
2022-10-22T09:39:39.041Z,36.13
2022-10-22T09:43:14.896Z,38.40
2022-10-22T09:46:47.022Z,40.30
2022-10-22T09:50:21.901Z,38.42
2022-10-22T09:54:02.995Z,37.83
2022-10-22T09:57:37.898Z,38.43
2022-10-22T10:01:32.013Z,37.33
2022-10-22T10:05:04.766Z,35.90
2022-10-22T10:08:36.821Z,39.33
2022-10-22T10:12:39.113Z,40.37
2022-10-22T10:16:40.905Z,41.97
2022-10-22T10:20:31.341Z,51.53
2022-10-22T10:24:27.986Z,48.08
2022-10-22T10:28:14.803Z,35.77
2022-10-22T10:31:58.382Z,38.55
2022-10-22T10:35:42.162Z,53.38
2022-10-22T10:39:40.081Z,38.00
2022-10-22T10:43:49.926Z,37.63
2022-10-22T10:47:47.791Z,35.13
2022-10-22T10:51:44.004Z,37.55
2022-10-22T10:55:35.979Z,37.43
2022-10-22T10:59:35.292Z,34.40
2022-10-22T11:03:43.584Z,35.60
2022-10-22T11:07:30.398Z,38.58
2022-10-22T11:11:12.729Z,37.13
2022-10-22T11:14:59.482Z,33.87
2022-10-22T11:18:41.683Z,39.08
2022-10-22T11:22:26.810Z,33.72
2022-10-22T11:26:00.427Z,32.57
2022-10-22T11:29:42.936Z,32.70
2022-10-22T11:33:21.395Z,27.42
2022-10-22T11:36:54.555Z,25.73
2022-10-22T11:40:29.505Z,29.50
2022-10-22T11:44:07.519Z,31.70
2022-10-22T11:48:04.771Z,30.42
2022-10-22T11:51:38.760Z,35.47
2022-10-22T11:55:32.067Z,34.92
2022-10-22T11:59:04.137Z,36.83
2022-10-22T12:02:46.112Z,36.53
2022-10-22T12:06:26.300Z,31.33
2022-10-22T12:09:58.433Z,31.83
2022-10-22T12:13:52.522Z,31.13
2022-10-22T12:17:25.607Z,29.85
2022-10-22T12:20:58.314Z,32.70
2022-10-22T12:24:34.260Z,33.37
2022-10-22T12:28:11.858Z,32.60
2022-10-22T12:31:46.124Z,31.48
2022-10-22T12:35:20.636Z,33.30
2022-10-22T12:38:52.290Z,28.97
2022-10-22T12:42:25.329Z,27.77
2022-10-22T12:46:01.033Z,29.30
2022-10-22T12:49:41.688Z,30.83
2022-10-22T12:53:37.427Z,28.23
2022-10-22T12:57:16.544Z,29.30
2022-10-22T13:00:49.007Z,29.10
2022-10-22T13:04:31.381Z,26.10
2022-10-22T13:08:08.914Z,33.28
2022-10-22T13:11:48.537Z,27.40
2022-10-22T13:15:29.487Z,24.75
2022-10-22T13:19:01.561Z,28.15
2022-10-22T13:22:37.924Z,27.43
2022-10-22T13:26:16.726Z,24.97
2022-10-22T13:29:51.649Z,30.00
2022-10-22T13:33:30.068Z,28.65
2022-10-22T13:37:01.786Z,36.47
2022-10-22T13:40:33.617Z,29.83
2022-10-22T13:44:05.307Z,32.90
2022-10-22T13:47:37.211Z,34.95
2022-10-22T13:51:18.238Z,28.60
2022-10-22T13:54:50.116Z,34.97
2022-10-22T13:58:24.816Z,34.88
2022-10-22T14:01:57.090Z,33.60
2022-10-22T14:05:30.519Z,34.83
2022-10-22T14:09:06.248Z,32.20
2022-10-22T14:12:38.139Z,33.63
2022-10-22T14:16:17.268Z,34.05
2022-10-22T14:19:49.532Z,36.55
2022-10-22T14:23:24.133Z,36.63
2022-10-22T14:26:56.286Z,43.42
2022-10-22T14:30:30.248Z,37.00
2022-10-22T14:34:01.943Z,36.77
2022-10-22T14:37:33.844Z,35.37
2022-10-22T14:41:15.211Z,40.80
2022-10-22T14:44:47.178Z,30.02
2022-10-22T14:51:56.888Z,32.60
2022-10-22T14:55:29.107Z,34.08
2022-10-22T14:59:01.075Z,30.33
2022-10-22T15:02:32.868Z,29.60
2022-10-22T15:06:05.138Z,29.50
2022-10-22T15:09:36.798Z,30.40
2022-10-22T15:13:09.216Z,36.47
2022-10-22T15:16:41.526Z,32.47
2022-10-22T15:20:13.385Z,33.70
2022-10-22T15:23:45.167Z,32.97
2022-10-22T15:27:17.122Z,32.53
2022-10-22T15:31:00.944Z,29.98
2022-10-22T15:34:35.054Z,31.50
2022-10-22T15:38:09.256Z,33.63
2022-10-22T15:41:41.402Z,31.45
2022-10-22T15:45:13.178Z,38.67
2022-10-22T15:48:45.653Z,37.13
2022-10-22T15:52:17.405Z,36.65
2022-10-22T15:55:49.822Z,37.85
2022-10-22T15:59:21.830Z,38.65
2022-10-22T16:02:54.745Z,38.63
2022-10-22T16:06:27.834Z,40.10
2022-10-22T16:10:02.711Z,42.10
2022-10-22T16:13:36.894Z,36.53
2022-10-22T16:17:08.984Z,37.27
2022-10-22T16:20:41.761Z,38.50
2022-10-22T16:24:13.632Z,40.65
2022-10-22T16:27:49.409Z,41.07
2022-10-22T16:31:21.369Z,36.13
2022-10-22T16:34:53.400Z,40.38
2022-10-22T16:38:25.457Z,41.67
2022-10-22T16:41:57.073Z,39.17
2022-10-22T16:45:28.991Z,48.63
2022-10-22T16:49:00.783Z,39.63
2022-10-22T16:52:32.754Z,44.15
2022-10-22T16:56:04.876Z,37.67
2022-10-22T16:59:36.745Z,40.03
2022-10-22T17:03:11.735Z,39.70
2022-10-22T17:06:44.091Z,41.90
2022-10-22T17:10:16.936Z,46.47
2022-10-22T17:13:52.768Z,39.13
2022-10-22T17:17:24.602Z,41.85
2022-10-22T17:20:58.321Z,46.83
2022-10-22T17:24:30.131Z,45.33
2022-10-22T17:28:01.976Z,42.73
2022-10-22T17:31:38.456Z,41.45
2022-10-22T17:35:10.732Z,44.47
2022-10-22T17:38:43.945Z,41.73
2022-10-22T17:42:16.915Z,37.50
2022-10-22T17:45:48.815Z,44.00
2022-10-22T17:49:20.833Z,41.95
2022-10-22T17:52:52.906Z,42.87
2022-10-22T17:56:27.117Z,39.50
2022-10-22T17:59:58.774Z,41.35
2022-10-22T18:03:30.806Z,40.78
2022-10-22T18:07:02.493Z,43.67
2022-10-22T18:10:39.699Z,50.93
2022-10-22T18:14:11.403Z,37.38
2022-10-22T18:17:43.410Z,36.50
2022-10-22T18:21:16.912Z,36.93
2022-10-22T18:24:49.002Z,41.90
2022-10-22T18:28:20.729Z,42.13
2022-10-22T18:31:52.668Z,38.03
2022-10-22T18:35:24.387Z,37.30
2022-10-22T18:38:58.994Z,37.40
2022-10-22T18:42:33.582Z,39.55
2022-10-22T18:46:08.408Z,41.85
2022-10-22T18:49:40.167Z,38.53
2022-10-22T18:53:14.270Z,42.05
2022-10-22T18:56:46.178Z,42.97
2022-10-22T19:00:18.191Z,42.35
2022-10-22T19:03:50.778Z,44.43
2022-10-22T19:07:22.806Z,37.33
2022-10-22T19:10:54.560Z,39.85
2022-10-22T19:14:26.926Z,39.53
2022-10-22T19:17:58.570Z,36.20
2022-10-22T19:21:30.686Z,33.97
2022-10-22T19:25:02.375Z,38.65
2022-10-22T19:28:34.413Z,36.87
2022-10-22T19:35:38.194Z,36.78
2022-10-22T19:39:10.048Z,37.38
2022-10-22T19:42:44.266Z,41.20
2022-10-22T19:46:17.176Z,39.13
2022-10-22T19:49:49.055Z,39.20
2022-10-22T19:53:21.447Z,38.35
2022-10-22T19:56:53.821Z,40.83
2022-10-22T20:00:25.642Z,45.40
2022-10-22T20:03:57.767Z,39.45
2022-10-22T20:07:29.428Z,41.28
2022-10-22T20:11:02.282Z,35.85
2022-10-22T20:14:37.853Z,43.03
2022-10-22T20:18:10.234Z,43.30
2022-10-22T20:21:43.142Z,36.92
2022-10-22T20:25:15.620Z,41.77
2022-10-22T20:28:47.334Z,43.60
2022-10-22T20:32:19.281Z,57.03
2022-10-22T20:36:01.592Z,89.07
2022-10-22T20:39:33.529Z,98.50
2022-10-22T20:43:05.922Z,164.43
2022-10-22T20:46:39.633Z,196.95
2022-10-22T20:50:14.000Z,83.28
2022-10-22T20:53:45.959Z,112.20
2022-10-22T20:57:17.740Z,75.50
2022-10-22T21:00:50.110Z,80.35
2022-10-22T21:04:22.060Z,53.83
2022-10-22T21:07:53.896Z,61.43
2022-10-22T21:11:25.600Z,83.03
2022-10-22T21:14:57.505Z,90.20
2022-10-22T21:18:29.173Z,73.68
2022-10-22T21:22:01.298Z,105.80
2022-10-22T21:25:33.172Z,114.30
2022-10-22T21:29:05.022Z,108.13
2022-10-22T21:32:36.671Z,102.38
2022-10-22T21:36:09.172Z,109.73
2022-10-22T21:39:42.157Z,97.67
2022-10-22T21:43:15.130Z,105.47
2022-10-22T21:46:46.929Z,81.03
2022-10-22T21:50:18.919Z,92.80
2022-10-22T21:57:27.865Z,79.07
2022-10-22T22:01:00.642Z,75.70
2022-10-22T22:04:33.063Z,93.83
2022-10-22T22:08:04.881Z,110.97
2022-10-22T22:11:36.841Z,139.07
2022-10-22T22:15:08.916Z,85.30
2022-10-22T22:18:41.620Z,82.57
2022-10-22T22:22:13.281Z,109.13
2022-10-22T22:25:46.158Z,80.63
2022-10-22T22:29:18.058Z,78.75
2022-10-22T22:32:50.012Z,94.20
2022-10-22T22:36:21.633Z,66.37
2022-10-22T22:39:54.085Z,82.35
2022-10-22T22:43:25.825Z,87.22
2022-10-22T22:46:57.683Z,89.00
2022-10-22T22:50:29.387Z,59.70
2022-10-22T22:54:02.169Z,91.07
2022-10-22T22:57:35.280Z,46.55
2022-10-22T23:01:10.239Z,85.63
2022-10-22T23:04:42.003Z,84.53
2022-10-22T23:08:13.817Z,97.22
2022-10-22T23:11:46.510Z,126.00
2022-10-22T23:15:18.355Z,101.20
2022-10-22T23:18:50.793Z,90.53
2022-10-22T23:22:22.749Z,113.20
2022-10-22T23:25:56.014Z,121.40
2022-10-22T23:29:32.864Z,114.97
2022-10-22T23:33:04.523Z,114.80
2022-10-22T23:36:37.557Z,123.00
2022-10-22T23:40:09.846Z,97.50
2022-10-22T23:43:41.823Z,128.57
2022-10-22T23:47:13.462Z,135.63
2022-10-22T23:50:45.739Z,95.22
2022-10-22T23:54:18.552Z,125.93
2022-10-22T23:57:50.401Z,53.93
